sensor_id;sensor_type;location;lat;lon;timestamp;P1;durP1;ratioP1;P2;durP2;ratioP2
18320;SDS011;54904;54.350;18.664;2022-11-20T00:00:17;13.00;;;7.43;;
18320;SDS011;54904;54.350;18.664;2022-11-20T00:02:44;16.93;;;9.07;;
18320;SDS011;54904;54.350;18.664;2022-11-20T00:05:11;13.93;;;8.60;;
18320;SDS011;54904;54.350;18.664;2022-11-20T00:07:38;17.57;;;9.60;;
18320;SDS011;54904;54.350;18.664;2022-11-20T00:10:05;15.27;;;8.53;;
18320;SDS011;54904;54.350;18.664;2022-11-20T00:12:32;19.87;;;10.17;;
18320;SDS011;54904;54.350;18.664;2022-11-20T00:15:01;16.87;;;9.27;;
18320;SDS011;54904;54.350;18.664;2022-11-20T00:17:28;16.00;;;8.43;;
18320;SDS011;54904;54.350;18.664;2022-11-20T00:19:55;14.43;;;8.87;;
18320;SDS011;54904;54.350;18.664;2022-11-20T00:22:22;16.67;;;8.30;;
18320;SDS011;54904;54.350;18.664;2022-11-20T00:24:49;19.60;;;8.87;;
18320;SDS011;54904;54.350;18.664;2022-11-20T00:27:16;16.20;;;8.17;;
18320;SDS011;54904;54.350;18.664;2022-11-20T00:29:43;18.53;;;9.33;;
18320;SDS011;54904;54.350;18.664;2022-11-20T00:32:12;16.10;;;8.43;;
18320;SDS011;54904;54.350;18.664;2022-11-20T00:34:41;21.20;;;10.10;;
18320;SDS011;54904;54.350;18.664;2022-11-20T00:37:08;14.23;;;8.23;;
18320;SDS011;54904;54.350;18.664;2022-11-20T00:39:35;14.47;;;8.27;;
18320;SDS011;54904;54.350;18.664;2022-11-20T00:42:02;12.57;;;7.53;;
18320;SDS011;54904;54.350;18.664;2022-11-20T00:44:29;12.50;;;6.93;;
18320;SDS011;54904;54.350;18.664;2022-11-20T00:46:56;18.00;;;8.70;;
18320;SDS011;54904;54.350;18.664;2022-11-20T00:49:24;10.37;;;6.57;;
18320;SDS011;54904;54.350;18.664;2022-11-20T00:51:51;11.27;;;6.80;;
18320;SDS011;54904;54.350;18.664;2022-11-20T00:54:18;15.50;;;8.47;;
18320;SDS011;54904;54.350;18.664;2022-11-20T00:56:45;16.13;;;8.33;;
18320;SDS011;54904;54.350;18.664;2022-11-20T00:59:12;12.70;;;7.93;;
18320;SDS011;54904;54.350;18.664;2022-11-20T01:01:40;16.53;;;8.30;;
18320;SDS011;54904;54.350;18.664;2022-11-20T01:04:07;13.87;;;8.30;;
18320;SDS011;54904;54.350;18.664;2022-11-20T01:06:37;16.23;;;8.33;;
18320;SDS011;54904;54.350;18.664;2022-11-20T01:09:05;17.63;;;9.83;;
18320;SDS011;54904;54.350;18.664;2022-11-20T01:11:38;14.60;;;7.90;;
18320;SDS011;54904;54.350;18.664;2022-11-20T01:14:07;11.17;;;6.87;;
18320;SDS011;54904;54.350;18.664;2022-11-20T01:16:37;20.10;;;9.40;;
18320;SDS011;54904;54.350;18.664;2022-11-20T01:19:06;15.33;;;8.10;;
18320;SDS011;54904;54.350;18.664;2022-11-20T01:21:34;15.57;;;7.70;;
18320;SDS011;54904;54.350;18.664;2022-11-20T01:24:04;12.57;;;7.00;;
18320;SDS011;54904;54.350;18.664;2022-11-20T01:26:34;10.67;;;5.83;;
18320;SDS011;54904;54.350;18.664;2022-11-20T01:29:02;13.53;;;7.20;;
18320;SDS011;54904;54.350;18.664;2022-11-20T01:31:30;13.97;;;7.60;;
18320;SDS011;54904;54.350;18.664;2022-11-20T01:33:59;12.47;;;6.63;;
18320;SDS011;54904;54.350;18.664;2022-11-20T01:36:28;16.50;;;7.03;;
18320;SDS011;54904;54.350;18.664;2022-11-20T01:38:58;12.43;;;7.27;;
18320;SDS011;54904;54.350;18.664;2022-11-20T01:41:29;19.27;;;8.00;;
18320;SDS011;54904;54.350;18.664;2022-11-20T01:44:14;16.30;;;6.63;;
18320;SDS011;54904;54.350;18.664;2022-11-20T01:46:45;13.53;;;6.40;;
18320;SDS011;54904;54.350;18.664;2022-11-20T01:49:19;15.13;;;7.40;;
18320;SDS011;54904;54.350;18.664;2022-11-20T01:51:50;28.33;;;10.77;;
18320;SDS011;54904;54.350;18.664;2022-11-20T01:54:21;21.87;;;8.67;;
18320;SDS011;54904;54.350;18.664;2022-11-20T01:56:54;24.53;;;10.13;;
18320;SDS011;54904;54.350;18.664;2022-11-20T01:59:24;29.73;;;10.83;;
18320;SDS011;54904;54.350;18.664;2022-11-20T02:01:53;31.70;;;11.77;;
18320;SDS011;54904;54.350;18.664;2022-11-20T02:04:21;25.60;;;10.60;;
18320;SDS011;54904;54.350;18.664;2022-11-20T02:06:49;21.47;;;9.63;;
18320;SDS011;54904;54.350;18.664;2022-11-20T02:09:21;28.97;;;10.40;;
18320;SDS011;54904;54.350;18.664;2022-11-20T02:11:48;26.80;;;11.80;;
18320;SDS011;54904;54.350;18.664;2022-11-20T02:14:15;24.20;;;10.60;;
18320;SDS011;54904;54.350;18.664;2022-11-20T02:16:43;23.40;;;10.10;;
18320;SDS011;54904;54.350;18.664;2022-11-20T02:19:14;29.70;;;11.70;;
18320;SDS011;54904;54.350;18.664;2022-11-20T02:21:49;23.33;;;11.07;;
18320;SDS011;54904;54.350;18.664;2022-11-20T02:24:24;20.57;;;9.87;;
18320;SDS011;54904;54.350;18.664;2022-11-20T02:26:51;22.60;;;9.03;;
18320;SDS011;54904;54.350;18.664;2022-11-20T02:29:23;15.93;;;8.93;;
18320;SDS011;54904;54.350;18.664;2022-11-20T02:31:51;15.63;;;8.00;;
18320;SDS011;54904;54.350;18.664;2022-11-20T02:34:21;12.90;;;7.00;;
18320;SDS011;54904;54.350;18.664;2022-11-20T02:36:48;13.20;;;7.43;;
18320;SDS011;54904;54.350;18.664;2022-11-20T02:39:17;12.90;;;7.03;;
18320;SDS011;54904;54.350;18.664;2022-11-20T02:41:47;9.80;;;6.30;;
18320;SDS011;54904;54.350;18.664;2022-11-20T02:44:14;11.07;;;6.17;;
18320;SDS011;54904;54.350;18.664;2022-11-20T02:46:41;17.87;;;9.37;;
18320;SDS011;54904;54.350;18.664;2022-11-20T02:49:08;21.30;;;10.53;;
18320;SDS011;54904;54.350;18.664;2022-11-20T02:51:35;17.57;;;8.47;;
18320;SDS011;54904;54.350;18.664;2022-11-20T02:54:02;19.20;;;9.50;;
18320;SDS011;54904;54.350;18.664;2022-11-20T02:56:30;23.20;;;11.17;;
18320;SDS011;54904;54.350;18.664;2022-11-20T02:58:58;25.00;;;11.97;;
18320;SDS011;54904;54.350;18.664;2022-11-20T03:01:25;24.57;;;12.47;;
18320;SDS011;54904;54.350;18.664;2022-11-20T03:03:52;22.17;;;10.93;;
18320;SDS011;54904;54.350;18.664;2022-11-20T03:06:19;26.70;;;13.07;;
18320;SDS011;54904;54.350;18.664;2022-11-20T03:08:47;22.10;;;11.10;;
18320;SDS011;54904;54.350;18.664;2022-11-20T03:11:14;20.13;;;9.90;;
18320;SDS011;54904;54.350;18.664;2022-11-20T03:13:41;19.10;;;9.73;;
18320;SDS011;54904;54.350;18.664;2022-11-20T03:16:16;17.63;;;8.90;;
18320;SDS011;54904;54.350;18.664;2022-11-20T03:18:45;25.83;;;11.43;;
18320;SDS011;54904;54.350;18.664;2022-11-20T03:21:12;25.27;;;12.70;;
18320;SDS011;54904;54.350;18.664;2022-11-20T03:23:40;30.97;;;13.27;;
18320;SDS011;54904;54.350;18.664;2022-11-20T03:26:08;26.80;;;12.53;;
18320;SDS011;54904;54.350;18.664;2022-11-20T03:28:37;16.93;;;9.60;;
18320;SDS011;54904;54.350;18.664;2022-11-20T03:31:05;15.70;;;9.40;;
18320;SDS011;54904;54.350;18.664;2022-11-20T03:33:34;18.27;;;8.50;;
18320;SDS011;54904;54.350;18.664;2022-11-20T03:36:04;14.13;;;7.40;;
18320;SDS011;54904;54.350;18.664;2022-11-20T03:38:33;11.50;;;7.10;;
18320;SDS011;54904;54.350;18.664;2022-11-20T03:41:00;12.60;;;6.63;;
18320;SDS011;54904;54.350;18.664;2022-11-20T03:43:28;20.50;;;9.93;;
18320;SDS011;54904;54.350;18.664;2022-11-20T03:45:55;26.50;;;13.07;;
18320;SDS011;54904;54.350;18.664;2022-11-20T03:48:22;18.93;;;10.87;;
18320;SDS011;54904;54.350;18.664;2022-11-20T03:50:51;24.63;;;12.63;;
18320;SDS011;54904;54.350;18.664;2022-11-20T03:53:19;22.37;;;11.40;;
18320;SDS011;54904;54.350;18.664;2022-11-20T03:55:50;20.20;;;9.73;;
18320;SDS011;54904;54.350;18.664;2022-11-20T03:58:17;18.10;;;8.93;;
18320;SDS011;54904;54.350;18.664;2022-11-20T04:00:44;13.80;;;8.07;;
18320;SDS011;54904;54.350;18.664;2022-11-20T04:03:11;16.47;;;8.83;;
18320;SDS011;54904;54.350;18.664;2022-11-20T04:05:38;28.73;;;14.13;;
18320;SDS011;54904;54.350;18.664;2022-11-20T04:08:06;27.13;;;13.00;;
18320;SDS011;54904;54.350;18.664;2022-11-20T04:10:33;33.03;;;15.97;;
18320;SDS011;54904;54.350;18.664;2022-11-20T04:13:00;28.23;;;14.17;;
18320;SDS011;54904;54.350;18.664;2022-11-20T04:15:27;27.93;;;14.40;;
18320;SDS011;54904;54.350;18.664;2022-11-20T04:17:54;28.90;;;14.67;;
18320;SDS011;54904;54.350;18.664;2022-11-20T04:20:21;34.27;;;16.77;;
18320;SDS011;54904;54.350;18.664;2022-11-20T04:22:48;30.37;;;15.33;;
18320;SDS011;54904;54.350;18.664;2022-11-20T04:25:17;29.70;;;13.90;;
18320;SDS011;54904;54.350;18.664;2022-11-20T04:27:44;21.87;;;11.67;;
18320;SDS011;54904;54.350;18.664;2022-11-20T04:32:38;20.63;;;9.93;;
18320;SDS011;54904;54.350;18.664;2022-11-20T04:35:05;15.70;;;8.73;;
18320;SDS011;54904;54.350;18.664;2022-11-20T04:37:33;15.17;;;8.23;;
18320;SDS011;54904;54.350;18.664;2022-11-20T04:40:00;21.43;;;10.93;;
18320;SDS011;54904;54.350;18.664;2022-11-20T04:42:28;18.97;;;9.80;;
18320;SDS011;54904;54.350;18.664;2022-11-20T04:44:55;20.07;;;10.07;;
18320;SDS011;54904;54.350;18.664;2022-11-20T04:47:22;19.53;;;9.97;;
18320;SDS011;54904;54.350;18.664;2022-11-20T04:49:49;18.50;;;9.40;;
18320;SDS011;54904;54.350;18.664;2022-11-20T04:52:16;15.87;;;8.93;;
18320;SDS011;54904;54.350;18.664;2022-11-20T04:54:44;17.50;;;9.50;;
18320;SDS011;54904;54.350;18.664;2022-11-20T04:57:12;15.80;;;8.00;;
18320;SDS011;54904;54.350;18.664;2022-11-20T04:59:42;15.40;;;8.50;;
18320;SDS011;54904;54.350;18.664;2022-11-20T05:02:09;22.50;;;11.07;;
18320;SDS011;54904;54.350;18.664;2022-11-20T05:04:36;18.67;;;9.20;;
18320;SDS011;54904;54.350;18.664;2022-11-20T05:07:03;15.20;;;8.70;;
18320;SDS011;54904;54.350;18.664;2022-11-20T05:09:31;17.13;;;9.43;;
18320;SDS011;54904;54.350;18.664;2022-11-20T05:11:58;17.30;;;9.03;;
18320;SDS011;54904;54.350;18.664;2022-11-20T05:14:25;16.80;;;8.73;;
18320;SDS011;54904;54.350;18.664;2022-11-20T05:16:53;14.60;;;8.07;;
18320;SDS011;54904;54.350;18.664;2022-11-20T05:19:20;16.63;;;9.60;;
18320;SDS011;54904;54.350;18.664;2022-11-20T05:21:47;16.37;;;9.07;;
18320;SDS011;54904;54.350;18.664;2022-11-20T05:24:14;19.17;;;10.33;;
18320;SDS011;54904;54.350;18.664;2022-11-20T05:26:41;17.43;;;10.10;;
18320;SDS011;54904;54.350;18.664;2022-11-20T05:29:09;20.03;;;10.13;;
18320;SDS011;54904;54.350;18.664;2022-11-20T05:31:38;18.83;;;9.43;;
18320;SDS011;54904;54.350;18.664;2022-11-20T05:34:07;17.73;;;8.87;;
18320;SDS011;54904;54.350;18.664;2022-11-20T05:36:34;19.77;;;10.40;;
18320;SDS011;54904;54.350;18.664;2022-11-20T05:39:01;22.20;;;10.97;;
18320;SDS011;54904;54.350;18.664;2022-11-20T05:41:28;20.40;;;10.80;;
18320;SDS011;54904;54.350;18.664;2022-11-20T05:43:55;24.87;;;11.13;;
18320;SDS011;54904;54.350;18.664;2022-11-20T05:46:24;23.03;;;11.97;;
18320;SDS011;54904;54.350;18.664;2022-11-20T05:48:51;20.20;;;10.57;;
18320;SDS011;54904;54.350;18.664;2022-11-20T05:51:19;23.20;;;11.10;;
18320;SDS011;54904;54.350;18.664;2022-11-20T05:53:47;20.73;;;10.10;;
18320;SDS011;54904;54.350;18.664;2022-11-20T05:56:15;20.20;;;10.60;;
18320;SDS011;54904;54.350;18.664;2022-11-20T05:58:43;20.57;;;9.57;;
18320;SDS011;54904;54.350;18.664;2022-11-20T06:01:11;16.20;;;8.73;;
18320;SDS011;54904;54.350;18.664;2022-11-20T06:03:40;25.30;;;12.10;;
18320;SDS011;54904;54.350;18.664;2022-11-20T06:06:11;19.07;;;10.20;;
18320;SDS011;54904;54.350;18.664;2022-11-20T06:08:40;26.93;;;12.93;;
18320;SDS011;54904;54.350;18.664;2022-11-20T06:11:08;23.50;;;11.83;;
18320;SDS011;54904;54.350;18.664;2022-11-20T06:13:36;20.53;;;10.90;;
18320;SDS011;54904;54.350;18.664;2022-11-20T06:16:03;25.60;;;12.07;;
18320;SDS011;54904;54.350;18.664;2022-11-20T06:18:31;23.03;;;11.50;;
18320;SDS011;54904;54.350;18.664;2022-11-20T06:20:59;26.47;;;12.57;;
18320;SDS011;54904;54.350;18.664;2022-11-20T06:23:28;27.90;;;13.50;;
18320;SDS011;54904;54.350;18.664;2022-11-20T06:26:01;28.80;;;14.43;;
18320;SDS011;54904;54.350;18.664;2022-11-20T06:28:29;25.23;;;11.57;;
18320;SDS011;54904;54.350;18.664;2022-11-20T06:30:56;31.57;;;14.60;;
18320;SDS011;54904;54.350;18.664;2022-11-20T06:33:23;39.67;;;17.77;;
18320;SDS011;54904;54.350;18.664;2022-11-20T06:35:50;26.87;;;13.83;;
18320;SDS011;54904;54.350;18.664;2022-11-20T06:38:18;29.80;;;13.83;;
18320;SDS011;54904;54.350;18.664;2022-11-20T06:40:45;23.13;;;11.80;;
18320;SDS011;54904;54.350;18.664;2022-11-20T06:43:13;23.10;;;10.73;;
18320;SDS011;54904;54.350;18.664;2022-11-20T06:45:40;20.13;;;10.07;;
18320;SDS011;54904;54.350;18.664;2022-11-20T06:48:07;26.53;;;12.23;;
18320;SDS011;54904;54.350;18.664;2022-11-20T06:50:36;28.23;;;14.83;;
18320;SDS011;54904;54.350;18.664;2022-11-20T06:53:04;25.73;;;12.40;;
18320;SDS011;54904;54.350;18.664;2022-11-20T06:55:31;20.50;;;10.80;;
18320;SDS011;54904;54.350;18.664;2022-11-20T06:57:58;23.27;;;10.13;;
18320;SDS011;54904;54.350;18.664;2022-11-20T07:00:26;18.23;;;9.87;;
18320;SDS011;54904;54.350;18.664;2022-11-20T07:02:53;18.97;;;9.97;;
18320;SDS011;54904;54.350;18.664;2022-11-20T07:05:20;27.17;;;13.30;;
18320;SDS011;54904;54.350;18.664;2022-11-20T07:07:48;21.20;;;11.40;;
18320;SDS011;54904;54.350;18.664;2022-11-20T07:10:18;27.73;;;13.47;;
18320;SDS011;54904;54.350;18.664;2022-11-20T07:12:48;29.67;;;14.10;;
18320;SDS011;54904;54.350;18.664;2022-11-20T07:15:16;23.70;;;12.17;;
18320;SDS011;54904;54.350;18.664;2022-11-20T07:17:45;22.57;;;11.47;;
18320;SDS011;54904;54.350;18.664;2022-11-20T07:20:12;18.20;;;10.13;;
18320;SDS011;54904;54.350;18.664;2022-11-20T07:22:40;19.90;;;9.90;;
18320;SDS011;54904;54.350;18.664;2022-11-20T07:25:07;16.83;;;9.30;;
18320;SDS011;54904;54.350;18.664;2022-11-20T07:27:35;16.10;;;8.60;;
18320;SDS011;54904;54.350;18.664;2022-11-20T07:30:03;15.73;;;8.10;;
18320;SDS011;54904;54.350;18.664;2022-11-20T07:32:31;11.33;;;7.20;;
18320;SDS011;54904;54.350;18.664;2022-11-20T07:34:59;12.17;;;6.93;;
18320;SDS011;54904;54.350;18.664;2022-11-20T07:37:26;14.03;;;8.30;;
18320;SDS011;54904;54.350;18.664;2022-11-20T07:39:53;19.90;;;8.70;;
18320;SDS011;54904;54.350;18.664;2022-11-20T07:42:22;16.90;;;8.60;;
18320;SDS011;54904;54.350;18.664;2022-11-20T07:44:50;16.47;;;8.77;;
18320;SDS011;54904;54.350;18.664;2022-11-20T07:47:17;17.37;;;9.23;;
18320;SDS011;54904;54.350;18.664;2022-11-20T07:49:44;14.13;;;8.07;;
18320;SDS011;54904;54.350;18.664;2022-11-20T07:52:12;14.77;;;8.20;;
18320;SDS011;54904;54.350;18.664;2022-11-20T07:54:39;12.43;;;7.17;;
18320;SDS011;54904;54.350;18.664;2022-11-20T07:57:06;13.57;;;7.80;;
18320;SDS011;54904;54.350;18.664;2022-11-20T07:59:33;14.20;;;7.73;;
18320;SDS011;54904;54.350;18.664;2022-11-20T08:02:00;12.43;;;6.93;;
18320;SDS011;54904;54.350;18.664;2022-11-20T08:04:27;14.43;;;7.80;;
18320;SDS011;54904;54.350;18.664;2022-11-20T08:06:54;17.20;;;9.17;;
18320;SDS011;54904;54.350;18.664;2022-11-20T08:09:22;31.43;;;14.10;;
18320;SDS011;54904;54.350;18.664;2022-11-20T08:11:49;34.00;;;16.13;;
18320;SDS011;54904;54.350;18.664;2022-11-20T08:14:37;41.03;;;17.47;;
18320;SDS011;54904;54.350;18.664;2022-11-20T08:17:04;30.70;;;14.73;;
18320;SDS011;54904;54.350;18.664;2022-11-20T08:19:31;34.43;;;15.37;;
18320;SDS011;54904;54.350;18.664;2022-11-20T08:21:58;33.30;;;15.37;;
18320;SDS011;54904;54.350;18.664;2022-11-20T08:24:26;25.67;;;13.00;;
18320;SDS011;54904;54.350;18.664;2022-11-20T08:26:57;30.73;;;14.10;;
18320;SDS011;54904;54.350;18.664;2022-11-20T08:29:24;28.70;;;14.53;;
18320;SDS011;54904;54.350;18.664;2022-11-20T08:31:52;29.87;;;14.43;;
18320;SDS011;54904;54.350;18.664;2022-11-20T08:34:19;25.37;;;13.10;;
18320;SDS011;54904;54.350;18.664;2022-11-20T08:36:46;26.57;;;12.10;;
18320;SDS011;54904;54.350;18.664;2022-11-20T08:39:13;26.27;;;12.87;;
18320;SDS011;54904;54.350;18.664;2022-11-20T08:41:41;29.90;;;13.93;;
18320;SDS011;54904;54.350;18.664;2022-11-20T08:44:10;37.00;;;17.17;;
18320;SDS011;54904;54.350;18.664;2022-11-20T08:46:38;33.27;;;15.80;;
18320;SDS011;54904;54.350;18.664;2022-11-20T08:49:09;26.83;;;13.30;;
18320;SDS011;54904;54.350;18.664;2022-11-20T08:51:37;20.43;;;10.80;;
18320;SDS011;54904;54.350;18.664;2022-11-20T08:54:04;32.43;;;14.87;;
18320;SDS011;54904;54.350;18.664;2022-11-20T08:56:32;33.80;;;15.60;;
18320;SDS011;54904;54.350;18.664;2022-11-20T08:59:01;34.73;;;15.77;;
18320;SDS011;54904;54.350;18.664;2022-11-20T09:01:28;28.13;;;13.07;;
18320;SDS011;54904;54.350;18.664;2022-11-20T09:03:55;25.87;;;12.67;;
18320;SDS011;54904;54.350;18.664;2022-11-20T09:06:23;38.73;;;18.53;;
18320;SDS011;54904;54.350;18.664;2022-11-20T09:08:51;43.73;;;18.50;;
18320;SDS011;54904;54.350;18.664;2022-11-20T09:11:18;42.10;;;18.43;;
18320;SDS011;54904;54.350;18.664;2022-11-20T09:13:46;40.50;;;18.57;;
18320;SDS011;54904;54.350;18.664;2022-11-20T09:16:14;34.83;;;16.63;;
18320;SDS011;54904;54.350;18.664;2022-11-20T09:18:41;36.30;;;16.57;;
18320;SDS011;54904;54.350;18.664;2022-11-20T09:21:09;40.17;;;15.97;;
18320;SDS011;54904;54.350;18.664;2022-11-20T09:23:37;31.20;;;13.73;;
18320;SDS011;54904;54.350;18.664;2022-11-20T09:26:05;27.63;;;13.13;;
18320;SDS011;54904;54.350;18.664;2022-11-20T09:28:33;31.27;;;13.67;;
18320;SDS011;54904;54.350;18.664;2022-11-20T09:31:04;26.57;;;12.93;;
18320;SDS011;54904;54.350;18.664;2022-11-20T09:33:33;29.07;;;12.37;;
18320;SDS011;54904;54.350;18.664;2022-11-20T09:36:00;28.40;;;13.00;;
18320;SDS011;54904;54.350;18.664;2022-11-20T09:38:27;35.67;;;15.97;;
18320;SDS011;54904;54.350;18.664;2022-11-20T09:40:56;30.90;;;14.67;;
18320;SDS011;54904;54.350;18.664;2022-11-20T09:43:28;30.73;;;13.10;;
18320;SDS011;54904;54.350;18.664;2022-11-20T09:46:08;27.80;;;13.07;;
18320;SDS011;54904;54.350;18.664;2022-11-20T09:48:48;40.43;;;16.77;;
18320;SDS011;54904;54.350;18.664;2022-11-20T09:51:32;31.73;;;14.57;;
18320;SDS011;54904;54.350;18.664;2022-11-20T09:54:10;50.03;;;21.03;;
18320;SDS011;54904;54.350;18.664;2022-11-20T09:56:42;39.30;;;17.40;;
18320;SDS011;54904;54.350;18.664;2022-11-20T09:59:16;34.83;;;16.07;;
18320;SDS011;54904;54.350;18.664;2022-11-20T10:01:55;26.17;;;13.07;;
18320;SDS011;54904;54.350;18.664;2022-11-20T10:04:24;43.97;;;19.10;;
18320;SDS011;54904;54.350;18.664;2022-11-20T10:06:53;48.83;;;20.63;;
18320;SDS011;54904;54.350;18.664;2022-11-20T10:09:29;46.57;;;19.87;;
18320;SDS011;54904;54.350;18.664;2022-11-20T10:12:03;40.57;;;19.10;;
18320;SDS011;54904;54.350;18.664;2022-11-20T10:14:41;39.73;;;17.37;;
18320;SDS011;54904;54.350;18.664;2022-11-20T10:17:24;34.03;;;16.53;;
18320;SDS011;54904;54.350;18.664;2022-11-20T10:20:29;34.30;;;15.93;;
18320;SDS011;54904;54.350;18.664;2022-11-20T10:23:16;36.80;;;17.20;;
18320;SDS011;54904;54.350;18.664;2022-11-20T10:25:59;36.63;;;16.23;;
18320;SDS011;54904;54.350;18.664;2022-11-20T10:28:39;34.03;;;15.87;;
18320;SDS011;54904;54.350;18.664;2022-11-20T10:31:24;49.87;;;22.03;;
18320;SDS011;54904;54.350;18.664;2022-11-20T10:33:55;53.93;;;23.37;;
18320;SDS011;54904;54.350;18.664;2022-11-20T10:36:27;49.40;;;21.80;;
18320;SDS011;54904;54.350;18.664;2022-11-20T10:39:00;39.97;;;19.80;;
18320;SDS011;54904;54.350;18.664;2022-11-20T10:41:32;42.70;;;19.97;;
18320;SDS011;54904;54.350;18.664;2022-11-20T10:44:03;37.80;;;18.30;;
18320;SDS011;54904;54.350;18.664;2022-11-20T10:46:37;47.43;;;21.33;;
18320;SDS011;54904;54.350;18.664;2022-11-20T10:49:11;50.43;;;21.03;;
18320;SDS011;54904;54.350;18.664;2022-11-20T10:51:46;41.63;;;19.23;;
18320;SDS011;54904;54.350;18.664;2022-11-20T10:54:26;35.83;;;16.43;;
18320;SDS011;54904;54.350;18.664;2022-11-20T10:57:03;44.30;;;20.83;;
18320;SDS011;54904;54.350;18.664;2022-11-20T10:59:47;41.83;;;19.40;;
18320;SDS011;54904;54.350;18.664;2022-11-20T11:02:31;41.87;;;17.80;;
18320;SDS011;54904;54.350;18.664;2022-11-20T11:05:10;31.97;;;16.33;;
18320;SDS011;54904;54.350;18.664;2022-11-20T11:07:54;35.00;;;15.80;;
18320;SDS011;54904;54.350;18.664;2022-11-20T11:10:27;29.33;;;13.47;;
18320;SDS011;54904;54.350;18.664;2022-11-20T11:12:59;32.97;;;14.70;;
18320;SDS011;54904;54.350;18.664;2022-11-20T11:15:28;32.53;;;15.10;;
18320;SDS011;54904;54.350;18.664;2022-11-20T11:17:59;46.37;;;20.63;;
18320;SDS011;54904;54.350;18.664;2022-11-20T11:20:32;48.50;;;22.33;;
18320;SDS011;54904;54.350;18.664;2022-11-20T11:23:03;54.37;;;24.90;;
18320;SDS011;54904;54.350;18.664;2022-11-20T11:25:31;51.00;;;22.00;;
18320;SDS011;54904;54.350;18.664;2022-11-20T11:28:03;42.20;;;19.20;;
18320;SDS011;54904;54.350;18.664;2022-11-20T11:30:46;34.90;;;16.73;;
18320;SDS011;54904;54.350;18.664;2022-11-20T11:33:18;33.83;;;15.67;;
18320;SDS011;54904;54.350;18.664;2022-11-20T11:35:47;30.63;;;14.37;;
18320;SDS011;54904;54.350;18.664;2022-11-20T11:38:21;30.87;;;14.27;;
18320;SDS011;54904;54.350;18.664;2022-11-20T11:40:55;37.90;;;17.53;;
18320;SDS011;54904;54.350;18.664;2022-11-20T11:43:28;37.30;;;16.30;;
18320;SDS011;54904;54.350;18.664;2022-11-20T11:46:25;28.63;;;14.33;;
18320;SDS011;54904;54.350;18.664;2022-11-20T11:48:57;38.53;;;16.53;;
18320;SDS011;54904;54.350;18.664;2022-11-20T11:51:35;42.20;;;18.77;;
18320;SDS011;54904;54.350;18.664;2022-11-20T11:54:22;37.63;;;17.57;;
18320;SDS011;54904;54.350;18.664;2022-11-20T11:57:10;42.17;;;19.93;;
18320;SDS011;54904;54.350;18.664;2022-11-20T11:59:45;45.47;;;19.43;;
18320;SDS011;54904;54.350;18.664;2022-11-20T12:02:41;38.33;;;18.50;;
18320;SDS011;54904;54.350;18.664;2022-11-20T12:05:57;33.53;;;16.13;;
18320;SDS011;54904;54.350;18.664;2022-11-20T12:08:31;34.63;;;15.83;;
18320;SDS011;54904;54.350;18.664;2022-11-20T12:11:11;32.90;;;15.13;;
18320;SDS011;54904;54.350;18.664;2022-11-20T12:13:50;46.70;;;21.13;;
18320;SDS011;54904;54.350;18.664;2022-11-20T12:16:25;40.80;;;19.20;;
18320;SDS011;54904;54.350;18.664;2022-11-20T12:18:53;44.60;;;20.67;;
18320;SDS011;54904;54.350;18.664;2022-11-20T12:21:25;37.57;;;17.57;;
18320;SDS011;54904;54.350;18.664;2022-11-20T12:24:10;39.80;;;18.43;;
18320;SDS011;54904;54.350;18.664;2022-11-20T12:26:57;41.80;;;18.87;;
18320;SDS011;54904;54.350;18.664;2022-11-20T12:29:36;38.40;;;17.67;;
18320;SDS011;54904;54.350;18.664;2022-11-20T12:32:29;41.33;;;19.37;;
18320;SDS011;54904;54.350;18.664;2022-11-20T12:35:19;50.10;;;23.63;;
18320;SDS011;54904;54.350;18.664;2022-11-20T12:38:07;55.23;;;24.70;;
18320;SDS011;54904;54.350;18.664;2022-11-20T12:40:59;55.83;;;24.77;;
18320;SDS011;54904;54.350;18.664;2022-11-20T12:43:36;52.73;;;23.73;;
18320;SDS011;54904;54.350;18.664;2022-11-20T12:46:28;45.47;;;22.07;;
18320;SDS011;54904;54.350;18.664;2022-11-20T12:49:03;50.83;;;23.40;;
18320;SDS011;54904;54.350;18.664;2022-11-20T12:54:30;50.80;;;23.87;;
18320;SDS011;54904;54.350;18.664;2022-11-20T12:57:15;45.53;;;21.50;;
18320;SDS011;54904;54.350;18.664;2022-11-20T12:59:55;43.17;;;20.17;;
18320;SDS011;54904;54.350;18.664;2022-11-20T13:02:44;55.60;;;24.40;;
18320;SDS011;54904;54.350;18.664;2022-11-20T13:05:31;44.23;;;20.87;;
18320;SDS011;54904;54.350;18.664;2022-11-20T13:08:03;39.17;;;19.13;;
18320;SDS011;54904;54.350;18.664;2022-11-20T13:10:43;43.80;;;19.70;;
18320;SDS011;54904;54.350;18.664;2022-11-20T13:13:19;36.40;;;16.80;;
18320;SDS011;54904;54.350;18.664;2022-11-20T13:15:55;42.60;;;18.70;;
18320;SDS011;54904;54.350;18.664;2022-11-20T13:18:38;37.63;;;17.47;;
18320;SDS011;54904;54.350;18.664;2022-11-20T13:21:14;45.10;;;20.77;;
18320;SDS011;54904;54.350;18.664;2022-11-20T13:23:46;44.70;;;19.70;;
18320;SDS011;54904;54.350;18.664;2022-11-20T13:26:19;39.97;;;19.57;;
18320;SDS011;54904;54.350;18.664;2022-11-20T13:29:04;34.47;;;16.40;;
18320;SDS011;54904;54.350;18.664;2022-11-20T13:31:39;34.17;;;16.27;;
18320;SDS011;54904;54.350;18.664;2022-11-20T13:34:11;37.67;;;17.17;;
18320;SDS011;54904;54.350;18.664;2022-11-20T13:36:54;39.83;;;17.57;;
18320;SDS011;54904;54.350;18.664;2022-11-20T13:39:33;44.50;;;20.73;;
18320;SDS011;54904;54.350;18.664;2022-11-20T13:42:01;41.23;;;19.03;;
18320;SDS011;54904;54.350;18.664;2022-11-20T13:45:10;41.97;;;19.07;;
18320;SDS011;54904;54.350;18.664;2022-11-20T13:48:01;64.67;;;21.57;;
18320;SDS011;54904;54.350;18.664;2022-11-20T13:56:54;45.43;;;20.50;;
18320;SDS011;54904;54.350;18.664;2022-11-20T13:59:39;36.27;;;17.50;;
18320;SDS011;54904;54.350;18.664;2022-11-20T14:02:14;39.77;;;18.40;;
18320;SDS011;54904;54.350;18.664;2022-11-20T14:04:46;38.73;;;18.20;;
18320;SDS011;54904;54.350;18.664;2022-11-20T14:07:17;40.83;;;19.93;;
18320;SDS011;54904;54.350;18.664;2022-11-20T14:09:49;36.53;;;16.47;;
18320;SDS011;54904;54.350;18.664;2022-11-20T14:12:23;41.57;;;19.50;;
18320;SDS011;54904;54.350;18.664;2022-11-20T14:14:57;44.70;;;19.37;;
18320;SDS011;54904;54.350;18.664;2022-11-20T14:17:29;47.60;;;21.50;;
18320;SDS011;54904;54.350;18.664;2022-11-20T14:20:11;52.43;;;24.43;;
18320;SDS011;54904;54.350;18.664;2022-11-20T14:22:48;50.00;;;22.63;;
18320;SDS011;54904;54.350;18.664;2022-11-20T14:25:20;44.50;;;21.13;;
18320;SDS011;54904;54.350;18.664;2022-11-20T14:28:02;42.20;;;20.63;;
18320;SDS011;54904;54.350;18.664;2022-11-20T14:30:37;47.07;;;22.50;;
18320;SDS011;54904;54.350;18.664;2022-11-20T14:33:23;43.03;;;20.63;;
18320;SDS011;54904;54.350;18.664;2022-11-20T14:35:57;42.70;;;20.87;;
18320;SDS011;54904;54.350;18.664;2022-11-20T14:38:37;43.30;;;19.50;;
18320;SDS011;54904;54.350;18.664;2022-11-20T14:41:17;44.53;;;20.57;;
18320;SDS011;54904;54.350;18.664;2022-11-20T14:43:50;45.17;;;21.17;;
18320;SDS011;54904;54.350;18.664;2022-11-20T14:46:22;48.17;;;21.50;;
18320;SDS011;54904;54.350;18.664;2022-11-20T14:48:53;46.57;;;22.10;;